Bo Santa Ana Iii, Puerto Rico
Current Conditions -  °F | °C
As of 12:56 PM on Friday 28 Nov 2014 (Local Time) from TJSJ Reporting Station
Scattered Clouds Scattered Clouds  
Wind Chill: 84°   Ceiling: Unl
Heat Index: 90°   Visibility: 10mi
Dew Point: 73°   Wind: 12mph
Humidity: 69%   Direction: 50°NE
Pressure: 29.93"   Gusts: NA
Location:  17.9903°N, 66.2815°W
Report Text: TJSJ 281656Z 05010KT 10SM SCT034 29/23 A2993 RMK AO2 SLP135 T02890228
Loading
Personal Weather Stations






























Interactive Weather Map New forecast layout! Learn more

10-Day Weather Forecast

Advertisements
Track Severe Weather on mobile